createdAt,value
2022-09-07T00:00:12.157Z,19.63
2022-09-07T00:01:17.014Z,19.63
2022-09-07T00:02:20.358Z,19.56
2022-09-07T00:03:56.764Z,19.44
2022-09-07T00:05:00.440Z,19.38
2022-09-07T00:06:03.765Z,19.31
2022-09-07T00:07:38.650Z,19.25
2022-09-07T00:08:41.948Z,19.19
2022-09-07T00:09:44.928Z,19.19
2022-09-07T00:11:20.251Z,19.13
2022-09-07T00:12:23.365Z,19.13
2022-09-07T00:13:26.526Z,19.06
2022-09-07T00:15:01.387Z,19.00
2022-09-07T00:16:04.448Z,18.94
2022-09-07T00:17:08.404Z,18.94
2022-09-07T00:18:46.101Z,18.94
2022-09-07T00:19:49.504Z,18.69
2022-09-07T00:20:52.483Z,18.63
2022-09-07T00:22:26.990Z,18.56
2022-09-07T00:23:30.082Z,18.56
2022-09-07T00:24:33.186Z,18.56
2022-09-07T00:26:12.467Z,18.44
2022-09-07T00:27:15.465Z,18.44
2022-09-07T00:28:18.493Z,18.50
2022-09-07T00:29:53.946Z,18.44
2022-09-07T00:30:57.334Z,18.44
2022-09-07T00:32:01.173Z,18.38
2022-09-07T00:33:36.262Z,18.31
2022-09-07T00:34:39.231Z,18.31
2022-09-07T00:35:42.219Z,18.31
2022-09-07T00:37:17.279Z,18.25
2022-09-07T00:38:20.284Z,18.25
2022-09-07T00:39:23.721Z,18.25
2022-09-07T00:40:59.130Z,18.13
2022-09-07T00:42:01.940Z,18.13
2022-09-07T00:43:05.006Z,18.13
2022-09-07T00:44:39.936Z,18.06
2022-09-07T00:45:42.910Z,18.06
2022-09-07T00:46:46.271Z,18.06
2022-09-07T00:48:21.616Z,18.00
2022-09-07T00:49:24.633Z,18.00
2022-09-07T00:50:27.689Z,18.00
2022-09-07T00:52:02.549Z,18.06
2022-09-07T00:53:05.581Z,18.06
2022-09-07T00:54:08.779Z,18.06
2022-09-07T00:55:43.712Z,18.00
2022-09-07T00:56:46.849Z,17.94
2022-09-07T00:57:50.029Z,17.94
2022-09-07T00:59:25.241Z,18.06
2022-09-07T01:00:11.910Z,18.00
2022-09-07T01:01:14.827Z,18.00
2022-09-07T01:02:18.971Z,18.00
2022-09-07T01:03:55.205Z,18.06
2022-09-07T01:04:58.270Z,18.13
2022-09-07T01:06:06.909Z,18.13
2022-09-07T01:07:42.448Z,18.19
2022-09-07T01:08:45.563Z,18.13
2022-09-07T01:09:48.953Z,18.06
2022-09-07T01:11:23.975Z,18.06
2022-09-07T01:12:27.067Z,18.06
2022-09-07T01:13:30.413Z,18.13
2022-09-07T01:15:05.741Z,18.06
2022-09-07T01:16:08.933Z,18.06
2022-09-07T01:17:12.779Z,18.06
2022-09-07T01:18:48.280Z,18.13
2022-09-07T01:19:51.372Z,18.13
2022-09-07T01:20:54.739Z,18.13
2022-09-07T01:22:30.126Z,18.19
2022-09-07T01:23:33.407Z,18.19
2022-09-07T01:24:36.604Z,18.25
2022-09-07T01:26:11.758Z,18.25
2022-09-07T01:27:15.033Z,18.25
2022-09-07T01:28:18.252Z,18.25
2022-09-07T01:29:54.093Z,18.13
2022-09-07T01:30:57.516Z,18.13
2022-09-07T01:32:01.185Z,18.13
2022-09-07T01:33:36.538Z,18.00
2022-09-07T01:34:39.846Z,18.00
2022-09-07T01:35:43.072Z,18.06
2022-09-07T01:37:18.350Z,18.00
2022-09-07T01:38:21.813Z,18.00
2022-09-07T01:39:25.047Z,18.06
2022-09-07T01:41:00.864Z,18.06
2022-09-07T01:42:04.090Z,18.06
2022-09-07T01:43:07.161Z,18.06
2022-09-07T01:44:42.499Z,18.06
2022-09-07T01:45:45.810Z,18.13
2022-09-07T01:46:49.447Z,18.13
2022-09-07T01:48:25.037Z,18.13
2022-09-07T01:49:28.510Z,18.13
2022-09-07T01:50:31.885Z,18.13
2022-09-07T01:52:07.443Z,18.13
2022-09-07T01:53:10.827Z,18.13
2022-09-07T01:54:14.017Z,18.13
2022-09-07T01:55:49.342Z,18.19
2022-09-07T01:56:52.873Z,18.19
2022-09-07T01:57:56.388Z,18.19
2022-09-07T01:59:31.774Z,18.13
2022-09-07T02:00:12.445Z,18.13
2022-09-07T02:01:15.535Z,18.06
2022-09-07T02:02:19.151Z,18.06
2022-09-07T02:03:54.771Z,18.00
2022-09-07T02:04:57.636Z,18.00
2022-09-07T02:06:00.678Z,18.00
2022-09-07T02:07:35.716Z,18.00
2022-09-07T02:08:38.679Z,18.00
2022-09-07T02:09:41.722Z,17.94
2022-09-07T02:11:16.824Z,17.94
2022-09-07T02:12:19.653Z,18.00
2022-09-07T02:13:22.698Z,18.00
2022-09-07T02:14:57.617Z,18.00
2022-09-07T02:16:00.515Z,18.00
2022-09-07T02:17:04.119Z,18.06
2022-09-07T02:18:39.160Z,18.00
2022-09-07T02:19:42.026Z,18.00
2022-09-07T02:20:44.918Z,18.00
2022-09-07T02:22:19.811Z,18.00
2022-09-07T02:23:22.909Z,18.00
2022-09-07T02:24:25.932Z,18.00
2022-09-07T02:26:01.086Z,18.00
2022-09-07T02:27:03.795Z,18.00
2022-09-07T02:28:06.761Z,18.00
2022-09-07T02:29:41.719Z,18.00
2022-09-07T02:30:44.672Z,18.00
2022-09-07T02:31:48.189Z,17.94
2022-09-07T02:33:22.911Z,18.00
2022-09-07T02:34:25.942Z,17.94
2022-09-07T02:35:28.836Z,17.94
2022-09-07T02:37:03.719Z,17.94
2022-09-07T02:38:06.616Z,17.94
2022-09-07T02:39:09.625Z,17.88
2022-09-07T02:40:44.761Z,17.88
2022-09-07T02:41:47.665Z,17.88
2022-09-07T02:42:50.771Z,17.88
2022-09-07T02:44:25.552Z,17.88
2022-09-07T02:45:28.728Z,17.88
2022-09-07T02:46:31.989Z,17.88
2022-09-07T02:48:07.086Z,17.88
2022-09-07T02:49:10.569Z,17.88
2022-09-07T02:50:13.550Z,17.88
2022-09-07T02:51:48.447Z,17.94
2022-09-07T02:52:51.261Z,17.88
2022-09-07T02:53:54.107Z,17.88
2022-09-07T02:55:28.947Z,17.88
2022-09-07T02:56:32.030Z,17.88
2022-09-07T02:57:35.063Z,17.88
2022-09-07T02:59:09.722Z,17.81
2022-09-07T03:00:12.299Z,17.81
2022-09-07T03:01:15.290Z,17.81
2022-09-07T03:02:19.018Z,17.75
2022-09-07T03:03:54.520Z,17.75
2022-09-07T03:04:57.539Z,17.75
2022-09-07T03:06:00.471Z,17.81
2022-09-07T03:07:36.035Z,17.81
2022-09-07T03:08:41.961Z,17.81
2022-09-07T03:09:44.869Z,17.81
2022-09-07T03:11:19.929Z,17.81
2022-09-07T03:12:22.756Z,17.81
2022-09-07T03:13:25.891Z,17.88
2022-09-07T03:15:00.839Z,17.88
2022-09-07T03:16:04.005Z,17.88
2022-09-07T03:17:07.175Z,17.88
2022-09-07T03:18:42.103Z,17.94
2022-09-07T03:19:44.991Z,17.88
2022-09-07T03:20:48.032Z,17.88
2022-09-07T03:22:22.993Z,17.88
2022-09-07T03:23:25.940Z,17.88
2022-09-07T03:24:32.358Z,17.88
2022-09-07T03:26:07.179Z,17.94
2022-09-07T03:27:10.075Z,17.94
2022-09-07T03:28:12.957Z,17.94
2022-09-07T03:29:48.278Z,17.94
2022-09-07T03:30:51.458Z,17.94
2022-09-07T03:31:55.145Z,18.00
2022-09-07T03:33:29.978Z,18.00
2022-09-07T03:34:33.213Z,17.94
2022-09-07T03:35:36.286Z,17.94
2022-09-07T03:37:11.165Z,18.00
2022-09-07T03:38:14.354Z,18.00
2022-09-07T03:39:17.448Z,18.00
2022-09-07T03:40:53.145Z,18.00
2022-09-07T03:41:56.038Z,18.00
2022-09-07T03:42:59.197Z,17.94
2022-09-07T03:44:34.168Z,17.94
2022-09-07T03:45:37.188Z,17.94
2022-09-07T03:46:40.598Z,17.94
2022-09-07T03:48:15.207Z,17.88
2022-09-07T03:49:18.849Z,17.88
2022-09-07T03:50:21.992Z,17.88
2022-09-07T03:51:57.172Z,17.88
2022-09-07T03:53:00.076Z,17.88
2022-09-07T03:54:03.049Z,17.81
2022-09-07T03:55:38.116Z,17.75
2022-09-07T03:56:41.092Z,17.75
2022-09-07T03:57:44.062Z,17.69
2022-09-07T03:59:19.045Z,17.69
2022-09-07T04:00:12.147Z,17.63
2022-09-07T04:01:15.303Z,17.63
2022-09-07T04:02:19.028Z,17.63
2022-09-07T04:03:56.844Z,17.63
2022-09-07T04:05:40.527Z,17.63
2022-09-07T04:06:43.774Z,17.56
2022-09-07T04:07:46.656Z,17.56
2022-09-07T04:09:21.784Z,17.56
2022-09-07T04:10:25.096Z,17.56
2022-09-07T04:11:27.982Z,17.56
2022-09-07T04:13:02.993Z,17.50
2022-09-07T04:14:05.923Z,17.50
2022-09-07T04:15:08.805Z,17.50
2022-09-07T04:16:43.916Z,17.44
2022-09-07T04:17:47.505Z,17.44
2022-09-07T04:18:50.524Z,17.44
2022-09-07T04:20:25.367Z,17.44
2022-09-07T04:21:28.618Z,17.38
2022-09-07T04:22:31.960Z,17.38
2022-09-07T04:24:11.931Z,17.38
2022-09-07T04:25:14.881Z,17.38
2022-09-07T04:26:17.802Z,17.38
2022-09-07T04:27:52.615Z,17.38
2022-09-07T04:28:55.692Z,17.31
2022-09-07T04:29:58.738Z,17.31
2022-09-07T04:31:34.251Z,17.31
2022-09-07T04:32:37.325Z,17.31
2022-09-07T04:33:40.217Z,17.31
2022-09-07T04:35:15.206Z,17.25
2022-09-07T04:36:18.300Z,17.25
2022-09-07T04:37:21.333Z,17.25
2022-09-07T04:38:56.199Z,17.25
2022-09-07T04:39:59.181Z,17.25
2022-09-07T04:41:02.587Z,17.25
2022-09-07T04:42:37.448Z,17.25
2022-09-07T04:43:40.482Z,17.25
2022-09-07T04:44:43.390Z,17.25
2022-09-07T04:46:18.587Z,17.19
2022-09-07T04:47:21.917Z,17.19
2022-09-07T04:48:24.812Z,17.19
2022-09-07T04:49:59.889Z,17.19
2022-09-07T04:51:05.700Z,17.19
2022-09-07T04:52:09.004Z,17.19
2022-09-07T04:53:44.136Z,17.19
2022-09-07T04:54:47.021Z,17.19
2022-09-07T04:55:50.197Z,17.19
2022-09-07T04:57:29.676Z,17.19
2022-09-07T04:58:32.676Z,17.19
2022-09-07T04:59:35.665Z,17.19
2022-09-07T05:00:12.313Z,17.19
2022-09-07T05:01:15.587Z,17.19
2022-09-07T05:02:19.144Z,17.13
2022-09-07T05:03:54.830Z,17.13
2022-09-07T05:05:02.461Z,17.13
2022-09-07T05:06:05.892Z,17.13
2022-09-07T05:07:41.095Z,17.13
2022-09-07T05:08:44.097Z,17.06
2022-09-07T05:09:46.961Z,17.13
2022-09-07T05:11:26.231Z,17.06
2022-09-07T05:12:31.673Z,17.06
2022-09-07T05:13:34.822Z,17.06
2022-09-07T05:15:09.548Z,17.13
2022-09-07T05:16:12.472Z,17.13
2022-09-07T05:17:16.013Z,17.13
2022-09-07T05:18:50.884Z,17.19
2022-09-07T05:19:53.795Z,17.19
2022-09-07T05:21:00.891Z,17.19
2022-09-07T05:22:35.841Z,17.25
2022-09-07T05:23:38.861Z,17.25
2022-09-07T05:24:41.701Z,17.25
2022-09-07T05:26:16.608Z,17.25
2022-09-07T05:27:19.607Z,17.25
2022-09-07T05:28:22.424Z,17.25
2022-09-07T05:31:49.049Z,17.31
2022-09-07T05:32:51.866Z,17.31
2022-09-07T05:36:04.812Z,17.31
2022-09-07T05:37:07.809Z,17.25
2022-09-07T05:38:10.911Z,17.25
2022-09-07T05:39:45.978Z,17.31
2022-09-07T05:40:49.614Z,17.31
2022-09-07T05:41:52.615Z,17.31
2022-09-07T05:43:27.492Z,17.31
2022-09-07T05:45:32.728Z,17.38
2022-09-07T05:46:36.201Z,17.38
2022-09-07T05:48:10.928Z,17.38
2022-09-07T05:49:13.919Z,17.38
2022-09-07T05:50:16.962Z,17.38
2022-09-07T05:51:51.706Z,17.38
2022-09-07T05:52:54.622Z,17.38
2022-09-07T05:53:57.574Z,17.38
2022-09-07T05:56:07.089Z,17.38
2022-09-07T05:57:10.244Z,17.38
2022-09-07T05:58:13.166Z,17.44
2022-09-07T05:59:48.663Z,17.38
2022-09-07T06:00:11.724Z,17.44
2022-09-07T06:01:14.832Z,17.44
2022-09-07T06:02:18.169Z,17.44
2022-09-07T06:03:58.811Z,17.44
2022-09-07T06:05:01.947Z,17.50
2022-09-07T06:06:05.274Z,17.44
2022-09-07T06:08:06.522Z,17.50
2022-09-07T06:09:09.621Z,17.50
2022-09-07T06:11:21.030Z,17.50
2022-09-07T06:12:55.688Z,17.56
2022-09-07T06:13:58.602Z,17.56
2022-09-07T06:15:01.759Z,17.56
2022-09-07T06:16:36.579Z,17.56
2022-09-07T06:17:39.852Z,17.63
2022-09-07T06:18:42.669Z,17.63
2022-09-07T06:20:17.135Z,17.63
2022-09-07T06:21:20.172Z,17.69
2022-09-07T06:22:23.047Z,17.69
2022-09-07T06:24:00.617Z,17.69
2022-09-07T06:25:03.498Z,17.75
2022-09-07T06:26:06.392Z,17.75
2022-09-07T06:27:41.371Z,17.75
2022-09-07T06:28:46.627Z,17.69
2022-09-07T06:29:55.463Z,17.69
2022-09-07T06:31:30.189Z,17.69
2022-09-07T06:33:37.827Z,17.75
2022-09-07T06:34:40.851Z,17.75
2022-09-07T06:36:15.699Z,17.75
2022-09-07T06:37:18.631Z,17.81
2022-09-07T06:38:21.485Z,17.81
2022-09-07T06:40:01.153Z,17.81
2022-09-07T06:42:58.321Z,17.81
2022-09-07T06:44:32.796Z,17.81
2022-09-07T06:45:35.815Z,17.75
2022-09-07T06:47:40.160Z,17.75
2022-09-07T06:49:19.500Z,17.69
2022-09-07T06:50:22.390Z,17.69
2022-09-07T06:51:25.427Z,17.63
2022-09-07T06:55:36.820Z,17.56
2022-09-07T06:56:39.695Z,17.56
2022-09-07T06:58:14.639Z,17.56
2022-09-07T06:59:22.830Z,17.63
2022-09-07T07:00:12.360Z,17.63
2022-09-07T07:01:15.806Z,17.63
2022-09-07T07:02:18.961Z,17.63
2022-09-07T07:03:53.736Z,17.56
2022-09-07T07:04:56.655Z,17.63
2022-09-07T07:05:59.537Z,17.63
2022-09-07T07:07:34.632Z,17.63
2022-09-07T07:08:37.513Z,17.69
2022-09-07T07:09:40.480Z,17.69
2022-09-07T07:11:15.191Z,17.69
2022-09-07T07:14:56.489Z,17.88
2022-09-07T07:15:59.461Z,17.88
2022-09-07T07:17:03.070Z,17.94
2022-09-07T07:19:01.430Z,17.94
2022-09-07T07:20:04.334Z,17.94
2022-09-07T07:21:07.300Z,17.94
2022-09-07T07:23:53.527Z,17.94
2022-09-07T07:25:00.005Z,18.00
2022-09-07T07:26:02.893Z,18.00
2022-09-07T07:27:37.838Z,18.06
2022-09-07T07:29:39.211Z,18.13
2022-09-07T07:30:42.257Z,18.19
2022-09-07T07:32:23.028Z,18.25
2022-09-07T07:33:26.013Z,18.19
2022-09-07T07:34:41.785Z,18.19
2022-09-07T07:36:16.993Z,18.19
2022-09-07T07:37:20.799Z,18.19
2022-09-07T07:42:45.574Z,18.19
2022-09-07T07:43:48.491Z,18.19
2022-09-07T07:47:31.457Z,18.19
2022-09-07T07:48:34.652Z,18.19
2022-09-07T07:49:37.775Z,18.19
2022-09-07T07:54:31.603Z,18.38
2022-09-07T07:55:44.549Z,18.38
2022-09-07T07:57:19.623Z,18.44
2022-09-07T07:58:22.717Z,18.44
2022-09-07T07:59:25.943Z,18.56
2022-09-07T08:00:12.260Z,18.56
2022-09-07T08:01:47.166Z,18.63
2022-09-07T08:02:52.352Z,18.63
2022-09-07T08:04:27.047Z,18.63
2022-09-07T08:05:30.200Z,18.69
2022-09-07T08:06:33.202Z,18.69
2022-09-07T08:08:15.430Z,18.81
2022-09-07T08:09:18.493Z,18.94
2022-09-07T08:10:21.600Z,18.94
2022-09-07T08:11:56.255Z,19.00
2022-09-07T08:13:04.492Z,19.00
2022-09-07T08:14:07.842Z,19.06
2022-09-07T08:15:42.876Z,19.25
2022-09-07T08:16:46.344Z,19.31
2022-09-07T08:17:49.360Z,19.38
2022-09-07T08:19:27.640Z,19.31
2022-09-07T08:20:30.471Z,19.31
2022-09-07T08:21:33.519Z,19.25
2022-09-07T08:23:14.709Z,19.25
2022-09-07T08:24:17.779Z,19.25
2022-09-07T08:25:20.661Z,19.25
2022-09-07T08:26:55.571Z,19.25
2022-09-07T08:27:58.776Z,19.19
2022-09-07T08:29:01.784Z,19.25
2022-09-07T08:30:41.605Z,19.25
2022-09-07T08:31:44.754Z,19.25
2022-09-07T08:32:48.189Z,19.25
2022-09-07T08:34:23.043Z,19.25
2022-09-07T08:35:26.148Z,19.25
2022-09-07T08:36:29.092Z,19.25
2022-09-07T08:38:03.981Z,19.31
2022-09-07T08:39:12.902Z,19.31
2022-09-07T08:40:16.251Z,19.38
2022-09-07T08:41:51.136Z,19.50
2022-09-07T08:42:54.148Z,19.56
2022-09-07T08:43:57.272Z,19.63
2022-09-07T08:45:32.771Z,19.69
2022-09-07T08:46:35.655Z,19.69
2022-09-07T08:47:39.522Z,19.75
2022-09-07T08:49:14.592Z,19.81
2022-09-07T08:50:17.579Z,19.88
2022-09-07T08:51:24.212Z,20.00
2022-09-07T08:52:59.220Z,20.19
2022-09-07T08:54:02.099Z,20.25
2022-09-07T08:55:05.103Z,20.44
2022-09-07T08:56:40.103Z,20.56
2022-09-07T08:58:32.554Z,20.81
2022-09-07T08:59:50.519Z,20.94
2022-09-07T09:00:11.874Z,20.94
2022-09-07T09:01:30.986Z,21.00
2022-09-07T09:06:11.606Z,21.19
2022-09-07T09:07:48.402Z,21.56
2022-09-07T09:08:51.219Z,21.63
2022-09-07T09:09:54.163Z,21.69
2022-09-07T09:11:29.208Z,21.81
2022-09-07T09:12:36.850Z,21.88
2022-09-07T09:13:40.694Z,21.94
2022-09-07T09:15:16.556Z,21.94
2022-09-07T09:16:19.645Z,21.94
2022-09-07T09:17:23.524Z,21.88
2022-09-07T09:19:00.978Z,21.81
2022-09-07T09:20:03.843Z,21.81
2022-09-07T09:21:06.963Z,21.88
2022-09-07T09:22:41.848Z,21.81
2022-09-07T09:23:44.781Z,21.88
2022-09-07T09:24:47.812Z,21.81
2022-09-07T09:26:22.604Z,21.75
2022-09-07T09:27:25.846Z,21.56
2022-09-07T09:28:31.786Z,21.56
2022-09-07T09:30:08.590Z,21.44
2022-09-07T09:31:11.806Z,21.38
2022-09-07T09:32:15.524Z,21.31
2022-09-07T09:33:50.475Z,21.25
2022-09-07T09:34:55.220Z,21.19
2022-09-07T09:35:58.167Z,21.19
2022-09-07T09:37:33.133Z,21.25
2022-09-07T09:38:36.202Z,21.31
2022-09-07T09:39:39.235Z,21.38
2022-09-07T09:41:21.603Z,21.44
2022-09-07T09:42:24.641Z,21.44
2022-09-07T09:43:27.693Z,21.44
2022-09-07T09:45:02.409Z,21.50
2022-09-07T09:46:13.002Z,21.50
2022-09-07T09:47:32.140Z,21.69
2022-09-07T09:49:08.239Z,21.81
2022-09-07T09:50:12.060Z,21.81
2022-09-07T09:53:38.193Z,21.81
2022-09-07T09:55:33.828Z,21.88
2022-09-07T09:56:38.224Z,21.88
2022-09-07T09:57:41.670Z,21.94
2022-09-07T10:00:16.260Z,22.06
2022-09-07T10:05:05.369Z,22.31
2022-09-07T10:06:40.236Z,22.25
2022-09-07T10:07:43.108Z,22.25
2022-09-07T10:08:45.990Z,22.25
2022-09-07T10:10:24.442Z,22.38
2022-09-07T10:12:04.968Z,22.44
2022-09-07T10:13:08.344Z,22.56
2022-09-07T10:14:43.262Z,22.63
2022-09-07T10:15:46.274Z,22.69
2022-09-07T10:16:50.175Z,22.69
2022-09-07T10:18:25.961Z,22.81
2022-09-07T10:19:29.034Z,22.88
2022-09-07T10:20:33.279Z,22.88
2022-09-07T10:22:08.182Z,22.88
2022-09-07T10:23:11.444Z,22.88
2022-09-07T10:24:14.468Z,22.88
2022-09-07T10:25:49.466Z,22.94
2022-09-07T10:26:52.435Z,23.00
2022-09-07T10:27:55.538Z,23.06
2022-09-07T10:29:54.797Z,23.13
2022-09-07T10:30:59.006Z,23.13
2022-09-07T10:32:07.045Z,23.19
2022-09-07T10:33:42.100Z,23.25
2022-09-07T10:35:23.492Z,23.31
2022-09-07T10:36:26.502Z,23.44
2022-09-07T10:38:01.424Z,23.44
2022-09-07T10:39:05.763Z,23.25
2022-09-07T10:40:09.529Z,23.19
2022-09-07T10:41:45.717Z,23.13
2022-09-07T10:44:22.305Z,23.13
2022-09-07T10:45:57.346Z,23.25
2022-09-07T10:47:32.004Z,23.38
2022-09-07T10:48:35.032Z,23.50
2022-09-07T10:50:24.016Z,23.63
2022-09-07T10:51:27.227Z,23.63
2022-09-07T10:52:30.700Z,23.50
2022-09-07T10:54:57.876Z,23.31
2022-09-07T10:56:00.819Z,23.25
2022-09-07T10:57:03.707Z,23.31
2022-09-07T10:59:02.227Z,23.25
2022-09-07T11:00:12.287Z,23.25
2022-09-07T11:01:15.269Z,23.19
2022-09-07T11:02:18.700Z,23.19
2022-09-07T11:04:25.841Z,23.31
2022-09-07T11:05:34.346Z,23.31
2022-09-07T11:06:40.043Z,23.38
2022-09-07T11:08:20.613Z,23.50
2022-09-07T11:10:02.690Z,23.50
2022-09-07T11:11:05.949Z,23.50
2022-09-07T11:13:19.549Z,23.56
2022-09-07T11:14:55.253Z,23.50
2022-09-07T11:15:58.265Z,23.44
2022-09-07T11:18:14.862Z,23.38
2022-09-07T11:19:37.241Z,23.38
2022-09-07T11:20:40.797Z,23.44
2022-09-07T11:22:43.042Z,23.44
2022-09-07T11:23:46.243Z,23.38
2022-09-07T11:25:29.072Z,23.38
2022-09-07T11:27:04.772Z,23.38
2022-09-07T11:28:07.775Z,23.44
2022-09-07T11:29:30.398Z,23.56
2022-09-07T11:31:05.215Z,23.69
2022-09-07T11:32:08.851Z,23.75
2022-09-07T11:33:11.715Z,23.75
2022-09-07T11:35:11.405Z,23.81
2022-09-07T11:36:14.410Z,23.81
2022-09-07T11:37:17.519Z,23.75
2022-09-07T11:38:52.396Z,23.75
2022-09-07T11:39:55.351Z,23.75
2022-09-07T11:40:58.975Z,23.75
2022-09-07T11:42:44.426Z,23.81
2022-09-07T11:43:51.836Z,23.81
2022-09-07T11:44:54.814Z,23.81
2022-09-07T11:46:30.128Z,23.75
2022-09-07T11:47:33.720Z,23.75
2022-09-07T11:48:37.164Z,23.69
2022-09-07T11:50:12.448Z,23.81
2022-09-07T11:51:15.951Z,23.94
2022-09-07T11:52:19.050Z,24.00
2022-09-07T11:54:00.587Z,24.06
2022-09-07T11:55:03.697Z,24.06
2022-09-07T11:56:06.711Z,24.00
2022-09-07T11:57:43.889Z,23.88
2022-09-07T11:58:52.955Z,23.94
2022-09-07T11:59:55.818Z,24.00
2022-09-07T12:00:11.908Z,24.00
2022-09-07T12:01:14.854Z,24.00
2022-09-07T12:02:17.864Z,24.06
2022-09-07T12:04:30.031Z,23.94
2022-09-07T12:05:37.336Z,23.94
2022-09-07T12:06:40.439Z,23.94
2022-09-07T12:08:15.676Z,24.00
2022-09-07T12:09:18.999Z,24.00
2022-09-07T12:10:22.139Z,24.00
2022-09-07T12:12:03.089Z,24.00
2022-09-07T12:13:06.246Z,24.00
2022-09-07T12:14:09.365Z,24.06
2022-09-07T12:15:44.509Z,24.00
2022-09-07T12:16:48.186Z,24.00
2022-09-07T12:17:51.149Z,23.94
2022-09-07T12:19:26.051Z,23.88
2022-09-07T12:20:29.033Z,23.81
2022-09-07T12:21:32.244Z,23.75
2022-09-07T12:23:07.285Z,23.69
2022-09-07T12:24:10.175Z,23.63
2022-09-07T12:25:13.437Z,23.69
2022-09-07T12:26:48.787Z,23.69
2022-09-07T12:27:51.827Z,23.69
2022-09-07T12:29:00.248Z,23.75
2022-09-07T12:30:35.276Z,23.75
2022-09-07T12:31:40.019Z,23.69
2022-09-07T12:33:46.308Z,23.69
2022-09-07T12:35:21.140Z,23.75
2022-09-07T12:36:24.019Z,23.75
2022-09-07T12:37:27.181Z,23.75
2022-09-07T12:39:02.668Z,23.75
2022-09-07T12:40:05.989Z,23.69
2022-09-07T12:41:09.296Z,23.56
2022-09-07T12:43:17.537Z,23.50
2022-09-07T12:44:20.578Z,23.50
2022-09-07T12:45:26.905Z,23.50
2022-09-07T12:47:02.535Z,23.44
2022-09-07T12:48:05.719Z,23.38
2022-09-07T12:49:09.118Z,23.38
2022-09-07T12:50:45.108Z,23.25
2022-09-07T12:52:14.215Z,23.19
2022-09-07T12:53:19.041Z,23.19
2022-09-07T12:55:16.498Z,23.13
2022-09-07T12:57:30.340Z,23.13
2022-09-07T12:58:33.579Z,23.13
2022-09-07T13:00:12.572Z,23.13
2022-09-07T13:01:15.885Z,23.13
2022-09-07T13:02:20.058Z,23.13
2022-09-07T13:04:36.280Z,23.13
2022-09-07T13:05:39.313Z,23.13
2022-09-07T13:07:03.094Z,23.13
2022-09-07T13:08:50.014Z,23.13
2022-09-07T13:09:53.170Z,23.13
2022-09-07T13:10:56.488Z,23.13
2022-09-07T13:12:53.688Z,23.06
2022-09-07T13:14:27.515Z,23.06
2022-09-07T13:15:34.920Z,23.06
2022-09-07T13:17:56.827Z,23.13
2022-09-07T13:19:01.878Z,23.13
2022-09-07T13:20:05.282Z,23.19
2022-09-07T13:21:47.389Z,23.25
2022-09-07T13:22:51.349Z,23.31
2022-09-07T13:23:54.417Z,23.38
2022-09-07T13:26:13.612Z,23.69
2022-09-07T13:27:16.799Z,23.81
2022-09-07T13:28:20.074Z,23.94
2022-09-07T13:29:55.367Z,24.00
2022-09-07T13:30:59.033Z,24.00
2022-09-07T13:32:02.981Z,24.00
2022-09-07T13:34:20.762Z,24.19
2022-09-07T13:35:23.975Z,24.19
2022-09-07T13:36:27.240Z,24.19
2022-09-07T13:38:02.612Z,24.19
2022-09-07T13:39:05.984Z,24.19
2022-09-07T13:40:09.524Z,24.13
2022-09-07T13:41:44.448Z,24.06
2022-09-07T13:42:47.683Z,24.06
2022-09-07T13:43:51.032Z,24.06
2022-09-07T13:45:32.837Z,24.13
2022-09-07T13:46:36.746Z,24.25
2022-09-07T13:47:39.857Z,24.25
2022-09-07T13:49:15.018Z,24.25
2022-09-07T13:50:18.358Z,24.38
2022-09-07T13:51:21.748Z,24.44
2022-09-07T13:52:56.979Z,24.50
2022-09-07T13:53:59.964Z,24.56
2022-09-07T13:55:03.300Z,24.56
2022-09-07T13:56:44.181Z,24.56
2022-09-07T13:57:47.589Z,24.63
2022-09-07T13:58:50.970Z,24.63
2022-09-07T14:00:12.250Z,24.69
2022-09-07T14:01:15.426Z,24.75
2022-09-07T14:02:19.019Z,24.81
2022-09-07T14:03:54.731Z,24.81
2022-09-07T14:04:57.855Z,24.88
2022-09-07T14:06:01.065Z,24.94
2022-09-07T14:07:36.314Z,24.94
2022-09-07T14:08:39.896Z,25.00
2022-09-07T14:09:43.128Z,25.00
2022-09-07T14:11:18.512Z,25.06
2022-09-07T14:12:22.037Z,25.13
2022-09-07T14:13:25.015Z,25.13
2022-09-07T14:15:00.591Z,25.19
2022-09-07T14:16:06.894Z,25.25
2022-09-07T14:17:10.422Z,25.25
2022-09-07T14:18:45.725Z,25.25
2022-09-07T14:19:48.986Z,25.25
2022-09-07T14:20:52.162Z,25.25
2022-09-07T14:22:27.776Z,25.31
2022-09-07T14:23:35.783Z,25.31
2022-09-07T14:24:39.122Z,25.31
2022-09-07T14:26:57.631Z,25.31
2022-09-07T14:28:01.251Z,25.25
2022-09-07T14:29:04.529Z,25.13
2022-09-07T14:30:39.633Z,25.06
2022-09-07T14:31:43.686Z,25.06
2022-09-07T14:32:46.757Z,25.00
2022-09-07T14:34:27.259Z,24.94
2022-09-07T14:35:30.241Z,24.88
2022-09-07T14:36:44.229Z,24.81
2022-09-07T14:39:04.027Z,24.81
2022-09-07T14:40:08.085Z,24.75
2022-09-07T14:41:11.558Z,24.69
2022-09-07T14:42:48.309Z,24.63
2022-09-07T14:43:51.499Z,24.56
2022-09-07T14:44:54.856Z,24.56
2022-09-07T14:46:33.092Z,24.50
2022-09-07T14:47:42.891Z,24.50
2022-09-07T14:48:46.268Z,24.50
2022-09-07T14:50:24.074Z,24.50
2022-09-07T14:52:07.574Z,24.50
2022-09-07T14:53:35.004Z,24.56
2022-09-07T14:55:10.458Z,24.56
2022-09-07T14:56:13.701Z,24.56
2022-09-07T14:57:16.885Z,24.56
2022-09-07T14:58:54.551Z,24.56
2022-09-07T14:59:57.850Z,24.63
2022-09-07T15:00:11.945Z,24.63
2022-09-07T15:01:38.664Z,24.63
2022-09-07T15:02:42.638Z,24.69
2022-09-07T15:04:18.212Z,24.75
2022-09-07T15:05:22.618Z,24.75
2022-09-07T15:08:32.913Z,24.88
2022-09-07T15:09:36.110Z,24.88
2022-09-07T15:10:39.789Z,24.88
2022-09-07T15:13:18.639Z,24.75
2022-09-07T15:14:22.132Z,24.69
2022-09-07T15:15:26.721Z,24.63
2022-09-07T15:18:50.748Z,24.50
2022-09-07T15:19:53.968Z,24.44
2022-09-07T15:21:29.041Z,24.31
2022-09-07T15:22:32.135Z,24.31
2022-09-07T15:23:35.486Z,24.25
2022-09-07T15:25:11.316Z,24.25
2022-09-07T15:28:01.506Z,24.19
2022-09-07T15:30:28.511Z,24.13
2022-09-07T15:32:43.346Z,24.13
2022-09-07T15:33:49.156Z,24.06
2022-09-07T15:35:24.424Z,24.00
2022-09-07T15:36:28.656Z,24.00
2022-09-07T15:38:03.320Z,24.00
2022-09-07T15:40:25.485Z,23.94
2022-09-07T15:44:14.840Z,23.88
2022-09-07T15:45:58.420Z,23.88
2022-09-07T15:48:49.500Z,23.81
2022-09-07T15:50:34.591Z,23.81
2022-09-07T15:52:40.085Z,23.75
2022-09-07T15:54:49.000Z,23.75
2022-09-07T15:56:29.111Z,23.69
2022-09-07T15:58:46.793Z,23.69
2022-09-07T15:59:49.802Z,23.69
2022-09-07T16:00:12.556Z,23.69
2022-09-07T16:03:51.830Z,23.69
2022-09-07T16:05:41.879Z,23.69
2022-09-07T16:06:48.995Z,23.69
2022-09-07T16:08:25.237Z,23.69
2022-09-07T16:10:08.134Z,23.69
2022-09-07T16:11:14.690Z,23.69
2022-09-07T16:14:42.751Z,23.63
2022-09-07T16:15:49.175Z,23.63
2022-09-07T16:17:26.924Z,23.63
2022-09-07T16:19:22.120Z,23.63
2022-09-07T16:20:32.028Z,23.63
2022-09-07T16:21:41.112Z,23.56
2022-09-07T16:23:55.368Z,23.56
2022-09-07T16:24:58.557Z,23.56
2022-09-07T16:26:01.607Z,23.50
2022-09-07T16:27:36.686Z,23.50
2022-09-07T16:28:40.748Z,23.50
2022-09-07T16:29:44.076Z,23.50
2022-09-07T16:31:20.583Z,23.44
2022-09-07T16:33:36.730Z,23.44
2022-09-07T16:34:40.636Z,23.38
2022-09-07T16:36:16.151Z,23.38
2022-09-07T16:37:20.756Z,23.38
2022-09-07T16:39:30.679Z,23.31
2022-09-07T16:41:06.142Z,23.31
2022-09-07T16:42:12.150Z,23.31
2022-09-07T16:43:23.173Z,23.31
2022-09-07T16:46:02.594Z,23.25
2022-09-07T16:47:05.851Z,23.25
2022-09-07T16:48:09.089Z,23.25
2022-09-07T16:49:44.386Z,23.19
2022-09-07T16:50:50.998Z,23.19
2022-09-07T16:52:00.077Z,23.19
2022-09-07T16:53:35.183Z,23.13
2022-09-07T16:54:39.303Z,23.13
2022-09-07T16:55:43.086Z,23.13
2022-09-07T16:57:24.843Z,23.13
2022-09-07T16:59:34.138Z,23.13
2022-09-07T17:00:11.775Z,23.13
2022-09-07T17:01:20.407Z,23.06
2022-09-07T17:02:24.008Z,23.06
2022-09-07T17:03:59.231Z,23.06
2022-09-07T17:05:08.627Z,23.06
2022-09-07T17:06:12.043Z,23.00
2022-09-07T17:07:46.780Z,23.00
2022-09-07T17:08:50.178Z,22.94
2022-09-07T17:09:53.256Z,22.94
2022-09-07T17:11:28.145Z,22.94
2022-09-07T17:12:31.193Z,22.88
2022-09-07T17:13:34.379Z,22.88
2022-09-07T17:15:09.240Z,22.88
2022-09-07T17:16:12.588Z,22.88
2022-09-07T17:17:16.386Z,22.81
2022-09-07T17:20:28.632Z,22.75
2022-09-07T17:21:34.337Z,22.69
2022-09-07T17:23:10.525Z,22.69